MMZO/ZLO METAR and TAF weather

Enter ICAO airport designator
Station Type Date Time Source
MMZO METAR 2021/01/26 19:41 UTC NOAA

MMZO 261941Z 24010KT 10SM SKC 28/23 A2994


Station Type Date Time Source
MMZO Decoded METAR 2021/01/26 19:41 UTC NOAA

Manzanillo International , Mexico (MMZO) 19-09N 104-34W
Jan 26, 2021 - 02:41 PM EST / 2021.01.26 1941 UTC
Wind: from the WSW (240 degrees) at 12 MPH (10 KT):0
Visibility: 10 mile(s):0
Sky conditions: clear
Temperature: 82 F (28 C)
Dew Point: 73 F (23 C)
Relative Humidity: 74%
Pressure (altimeter): 29.94 in. Hg (1013 hPa)
ob: MMZO 261941Z 24010KT 10SM SKC 28/23 A2994
cycle: 19

Station Type Date Time Source
MMZO TAF 2021/01/26 18:19 UTC NOAA

TAF MMZO 261712Z 2618/2718 22010KT P6SM SCT020
FM270600 34005KT P6SM SCT020 SCT200
FM271200 02005KT P6SM BKN020 BKN200

Example: see airport list